Time;durP1;ratioP1;P1;durP2;ratioP2;P2;SDS_P1;SDS_P2;PMS_P1;PMS_P2;Temp;Humidity;BMP_temperature;BMP_pressure;BME280_temperature;BME280_humidity;BME280_pressure;Samples;Min_cycle;Max_cycle;Signal;HPM_P1;HPM_P2
2024/04/01 00:01:02;;;;;;;33.75;30.13;;;;;;;;;;5094939;28;20130;-41
2024/04/01 00:03:28;;;;;;;44.63;31.25;;;;;;;;;;5085604;28;20048;-43
2024/04/01 00:05:59;;;;;;;39.78;30.05;;;;;;;;;;5088975;28;20051;-42
2024/04/01 00:08:26;;;;;;;34.88;29.77;;;;;;;;;;5093078;28;20016;-48
2024/04/01 00:10:53;;;;;;;38.92;30.77;;;;;;;;;;5085568;28;20021;-41
2024/04/01 00:13:20;;;;;;;45.42;31.95;;;;;;;;;;5085441;28;20017;-43
2024/04/01 00:15:46;;;;;;;46.33;30.75;;;;;;;;;;5085282;28;20343;-43
2024/04/01 00:18:13;;;;;;;47.15;32.55;;;;;;;;;;5085426;28;20089;-47
2024/04/01 00:20:40;;;;;;;39.03;32.28;;;;;;;;;;5084556;28;20040;-45
2024/04/01 00:23:07;;;;;;;39.97;32.72;;;;;;;;;;5085111;28;20051;-43
2024/04/01 00:25:34;;;;;;;41.63;32.90;;;;;;;;;;5085679;28;20024;-45
2024/04/01 00:28:00;;;;;;;51.72;33.60;;;;;;;;;;5102409;28;20023;-47
2024/04/01 00:30:30;;;;;;;46.25;31.48;;;;;;;;;;5098944;28;20104;-42
2024/04/01 00:32:57;;;;;;;43.72;29.85;;;;;;;;;;5092533;28;20019;-39
2024/04/01 00:35:24;;;;;;;36.47;30.63;;;;;;;;;;5094435;28;20048;-43
2024/04/01 00:37:50;;;;;;;39.80;29.63;;;;;;;;;;5084846;28;20020;-47
2024/04/01 00:40:17;;;;;;;37.92;31.48;;;;;;;;;;5086058;28;20100;-51
2024/04/01 00:42:45;;;;;;;36.55;31.45;;;;;;;;;;5095956;28;20051;-42
2024/04/01 00:45:14;;;;;;;37.97;30.65;;;;;;;;;;5085421;28;20087;-47
2024/04/01 00:47:41;;;;;;;34.03;30.23;;;;;;;;;;5085714;28;20115;-38
2024/04/01 00:50:08;;;;;;;34.60;29.23;;;;;;;;;;5084436;28;20083;-36
2024/04/01 00:52:35;;;;;;;31.58;28.40;;;;;;;;;;5084612;28;20268;-40
2024/04/01 00:55:02;;;;;;;32.70;29.30;;;;;;;;;;5085283;28;20028;-39
2024/04/01 00:57:29;;;;;;;32.17;28.52;;;;;;;;;;5084649;28;20028;-36
2024/04/01 00:59:56;;;;;;;29.38;26.60;;;;;;;;;;5085023;28;20040;-40
2024/04/01 01:02:22;;;;;;;37.55;28.00;;;;;;;;;;5084557;28;20066;-38
2024/04/01 01:04:50;;;;;;;30.75;27.60;;;;;;;;;;5084744;28;20051;-47
2024/04/01 01:07:16;;;;;;;34.75;28.83;;;;;;;;;;5097347;28;20012;-43
2024/04/01 01:09:43;;;;;;;32.92;28.95;;;;;;;;;;5093802;28;20309;-42
2024/04/01 01:12:10;;;;;;;35.10;28.75;;;;;;;;;;5084641;28;20086;-48
2024/04/01 01:14:36;;;;;;;34.58;29.67;;;;;;;;;;5084547;28;20032;-46
2024/04/01 01:17:03;;;;;;;31.50;28.10;;;;;;;;;;5084415;28;20044;-48
2024/04/01 01:19:31;;;;;;;32.17;27.50;;;;;;;;;;5084349;28;20055;-49
2024/04/01 01:22:04;;;;;;;34.65;27.77;;;;;;;;;;5084299;28;20079;-45
2024/04/01 01:24:32;;;;;;;44.60;28.50;;;;;;;;;;5084629;28;20251;-36
2024/04/01 01:26:59;;;;;;;45.60;30.70;;;;;;;;;;5089346;28;20091;-40
2024/04/01 01:29:29;;;;;;;35.00;29.00;;;;;;;;;;5089533;28;20056;-46
2024/04/01 01:31:59;;;;;;;33.60;28.58;;;;;;;;;;5083879;28;20027;-46
2024/04/01 01:34:26;;;;;;;52.72;30.42;;;;;;;;;;5084203;28;20032;-51
2024/04/01 01:36:54;;;;;;;37.92;29.88;;;;;;;;;;5083376;28;20024;-49
2024/04/01 01:39:21;;;;;;;34.53;27.90;;;;;;;;;;5091662;28;20076;-45
2024/04/01 01:41:48;;;;;;;33.45;28.08;;;;;;;;;;5103972;28;20031;-46
2024/04/01 01:44:14;;;;;;;37.15;29.15;;;;;;;;;;5095845;28;20020;-37
2024/04/01 01:46:41;;;;;;;38.53;29.27;;;;;;;;;;5099539;28;20012;-38
2024/04/01 01:49:07;;;;;;;33.30;29.10;;;;;;;;;;5094245;28;20020;-38
2024/04/01 01:51:36;;;;;;;36.25;28.95;;;;;;;;;;5092866;28;20225;-41
2024/04/01 01:54:02;;;;;;;32.75;28.38;;;;;;;;;;5085910;28;20044;-47
2024/04/01 01:56:29;;;;;;;34.90;28.27;;;;;;;;;;5092465;28;20063;-46
2024/04/01 01:58:57;;;;;;;32.60;28.83;;;;;;;;;;5083484;28;20032;-44
2024/04/01 02:01:24;;;;;;;32.45;27.65;;;;;;;;;;5083472;28;20324;-47
2024/04/01 02:03:50;;;;;;;39.17;29.48;;;;;;;;;;5083901;28;20097;-45
2024/04/01 02:06:17;;;;;;;34.78;29.83;;;;;;;;;;5083537;28;20070;-44
2024/04/01 02:08:44;;;;;;;31.85;27.70;;;;;;;;;;5088276;28;20326;-46
2024/04/01 02:11:12;;;;;;;32.47;29.00;;;;;;;;;;5093766;28;20365;-37
2024/04/01 02:13:42;;;;;;;31.13;27.98;;;;;;;;;;5084270;28;20035;-38
2024/04/01 02:16:09;;;;;;;45.63;28.27;;;;;;;;;;5083614;28;20316;-36
2024/04/01 02:18:36;;;;;;;33.72;27.42;;;;;;;;;;5083745;28;20047;-37
2024/04/01 02:21:03;;;;;;;32.45;28.00;;;;;;;;;;5085698;28;20058;-48
2024/04/01 02:23:33;;;;;;;47.50;29.27;;;;;;;;;;5092554;28;20025;-40
2024/04/01 02:26:00;;;;;;;36.88;27.80;;;;;;;;;;5088665;28;20015;-37
2024/04/01 02:28:27;;;;;;;41.35;28.40;;;;;;;;;;5092036;28;20016;-39
2024/04/01 02:30:53;;;;;;;37.88;28.15;;;;;;;;;;5083213;28;20048;-46
2024/04/01 02:33:20;;;;;;;30.35;27.30;;;;;;;;;;5083176;28;20032;-36
2024/04/01 02:35:47;;;;;;;33.88;27.45;;;;;;;;;;5083188;28;20035;-56
2024/04/01 02:38:13;;;;;;;35.28;27.02;;;;;;;;;;5083244;28;20020;-45
2024/04/01 02:40:40;;;;;;;29.60;26.70;;;;;;;;;;5094312;28;20024;-36
2024/04/01 02:43:06;;;;;;;31.50;28.15;;;;;;;;;;5086308;28;20043;-40
2024/04/01 02:45:33;;;;;;;29.90;26.70;;;;;;;;;;5087423;28;20107;-46
2024/04/01 02:47:59;;;;;;;30.58;26.67;;;;;;;;;;5087149;28;20080;-54
2024/04/01 02:50:26;;;;;;;30.75;27.40;;;;;;;;;;5086828;28;20031;-50
2024/04/01 02:52:52;;;;;;;29.75;26.73;;;;;;;;;;5087072;28;20032;-44
2024/04/01 02:55:19;;;;;;;29.77;26.98;;;;;;;;;;5087468;28;20381;-45
2024/04/01 02:57:46;;;;;;;31.10;27.67;;;;;;;;;;5086913;28;20351;-46
2024/04/01 03:00:16;;;;;;;29.65;26.75;;;;;;;;;;5087244;28;20084;-44
2024/04/01 03:02:44;;;;;;;28.70;26.05;;;;;;;;;;5086846;28;20034;-49
2024/04/01 03:05:11;;;;;;;29.02;25.98;;;;;;;;;;5087051;28;20031;-50
2024/04/01 03:07:37;;;;;;;29.73;26.48;;;;;;;;;;5086740;28;20025;-48
2024/04/01 03:10:04;;;;;;;30.92;26.35;;;;;;;;;;5091972;28;20047;-36
2024/04/01 03:12:31;;;;;;;31.73;26.80;;;;;;;;;;5092433;28;20024;-35
2024/04/01 03:14:57;;;;;;;28.50;25.83;;;;;;;;;;5086971;28;20036;-48
2024/04/01 03:17:24;;;;;;;29.95;25.35;;;;;;;;;;5086494;28;20020;-48
2024/04/01 03:19:51;;;;;;;28.30;25.48;;;;;;;;;;5086762;28;20029;-46
2024/04/01 03:22:18;;;;;;;29.65;25.83;;;;;;;;;;5086275;28;20024;-46
2024/04/01 03:24:44;;;;;;;28.30;25.25;;;;;;;;;;5086804;28;20236;-48
2024/04/01 03:27:11;;;;;;;34.88;25.45;;;;;;;;;;5086417;28;20016;-46
2024/04/01 03:29:37;;;;;;;39.83;24.52;;;;;;;;;;5086124;28;20131;-44
2024/04/01 03:32:04;;;;;;;35.63;25.52;;;;;;;;;;5097592;28;20247;-53
2024/04/01 03:34:31;;;;;;;30.10;26.00;;;;;;;;;;5099655;28;20103;-45
2024/04/01 03:36:59;;;;;;;31.27;24.70;;;;;;;;;;5104755;28;20035;-44
2024/04/01 03:39:26;;;;;;;33.67;24.58;;;;;;;;;;5095714;28;20033;-48
2024/04/01 03:41:52;;;;;;;33.55;25.73;;;;;;;;;;5086435;28;20077;-51
2024/04/01 03:44:19;;;;;;;31.05;25.73;;;;;;;;;;5086163;28;20066;-48
2024/04/01 03:46:45;;;;;;;31.08;25.17;;;;;;;;;;5091029;28;20024;-49
2024/04/01 03:49:12;;;;;;;32.40;25.90;;;;;;;;;;5098332;28;20040;-54
2024/04/01 03:51:39;;;;;;;28.92;24.52;;;;;;;;;;5097310;28;20065;-46
2024/04/01 03:54:05;;;;;;;28.30;24.83;;;;;;;;;;5106628;28;20051;-45
2024/04/01 03:56:32;;;;;;;28.88;25.77;;;;;;;;;;5105014;28;20026;-50
2024/04/01 03:58:58;;;;;;;29.65;24.67;;;;;;;;;;5106632;28;20024;-47
2024/04/01 04:01:25;;;;;;;29.23;25.85;;;;;;;;;;5106110;28;20044;-46
2024/04/01 04:03:52;;;;;;;28.30;24.58;;;;;;;;;;5106398;28;20043;-47
2024/04/01 04:06:18;;;;;;;28.63;24.85;;;;;;;;;;5105935;28;20026;-45
2024/04/01 04:08:47;;;;;;;27.88;25.02;;;;;;;;;;5106068;28;20031;-51
2024/04/01 04:11:14;;;;;;;27.25;24.45;;;;;;;;;;5105827;28;20144;-55
2024/04/01 04:13:41;;;;;;;27.63;24.67;;;;;;;;;;5105875;28;20032;-45
2024/04/01 04:16:07;;;;;;;26.92;23.58;;;;;;;;;;5105952;28;20024;-44
2024/04/01 04:18:34;;;;;;;25.67;23.00;;;;;;;;;;5105863;28;20051;-46
2024/04/01 04:21:01;;;;;;;26.70;23.83;;;;;;;;;;5105608;28;20081;-54
2024/04/01 04:23:28;;;;;;;26.02;23.40;;;;;;;;;;5105707;28;20185;-56
2024/04/01 04:25:55;;;;;;;25.90;23.38;;;;;;;;;;5098187;28;20035;-48
2024/04/01 04:28:21;;;;;;;25.63;23.10;;;;;;;;;;5095259;28;20080;-48
2024/04/01 04:30:48;;;;;;;27.33;24.73;;;;;;;;;;5085092;28;20106;-46
2024/04/01 04:33:15;;;;;;;27.15;24.27;;;;;;;;;;5085098;28;20317;-49
2024/04/01 04:35:41;;;;;;;27.08;24.38;;;;;;;;;;5084935;28;20034;-48
2024/04/01 04:38:08;;;;;;;26.50;23.77;;;;;;;;;;5084892;28;20025;-52
2024/04/01 04:40:35;;;;;;;27.15;23.98;;;;;;;;;;5085408;28;20024;-47
2024/04/01 04:43:01;;;;;;;28.13;23.88;;;;;;;;;;5084890;28;20031;-50
2024/04/01 04:45:28;;;;;;;26.40;23.63;;;;;;;;;;5085486;28;20166;-50
2024/04/01 04:47:55;;;;;;;27.48;24.40;;;;;;;;;;5085075;28;20026;-54
2024/04/01 04:50:21;;;;;;;26.20;23.73;;;;;;;;;;5085254;28;20055;-55
2024/04/01 04:52:49;;;;;;;26.17;23.67;;;;;;;;;;5084822;28;20032;-48
2024/04/01 04:55:16;;;;;;;25.42;23.02;;;;;;;;;;5085284;28;20028;-48
2024/04/01 04:57:42;;;;;;;25.42;23.02;;;;;;;;;;5084996;28;20220;-46
2024/04/01 05:00:21;;;;;;;25.42;23.00;;;;;;;;;;5085060;28;20029;-47
2024/04/01 05:02:49;;;;;;;25.52;22.90;;;;;;;;;;5084610;28;20059;-47
2024/04/01 05:05:16;;;;;;;26.90;24.33;;;;;;;;;;5086998;28;20066;-43
2024/04/01 05:07:44;;;;;;;25.35;22.70;;;;;;;;;;5095927;28;20162;-45
2024/04/01 05:10:14;;;;;;;24.80;22.30;;;;;;;;;;5105379;28;20061;-44
2024/04/01 05:12:40;;;;;;;24.95;22.67;;;;;;;;;;5098535;28;20320;-47
2024/04/01 05:15:07;;;;;;;25.67;23.30;;;;;;;;;;5085607;28;20028;-45
2024/04/01 05:17:34;;;;;;;25.65;23.27;;;;;;;;;;5084344;28;20020;-44
2024/04/01 05:20:00;;;;;;;26.95;24.33;;;;;;;;;;5084101;28;20127;-45
2024/04/01 05:22:27;;;;;;;26.42;23.27;;;;;;;;;;5084268;28;20024;-44
2024/04/01 05:24:54;;;;;;;25.42;23.05;;;;;;;;;;5084669;28;20028;-46
2024/04/01 05:27:24;;;;;;;25.33;22.92;;;;;;;;;;5084191;28;20025;-46
2024/04/01 05:30:04;;;;;;;26.17;23.67;;;;;;;;;;5084178;28;20150;-46
2024/04/01 05:32:34;;;;;;;26.23;23.73;;;;;;;;;;5084012;28;20024;-44
2024/04/01 05:35:01;;;;;;;26.52;23.98;;;;;;;;;;5084567;28;20052;-52
2024/04/01 05:37:28;;;;;;;25.48;23.08;;;;;;;;;;5084053;28;20035;-45
2024/04/01 05:39:55;;;;;;;24.70;22.30;;;;;;;;;;5084358;28;20066;-47
2024/04/01 05:42:21;;;;;;;28.67;24.60;;;;;;;;;;5087319;28;20020;-48
2024/04/01 05:44:48;;;;;;;25.35;22.88;;;;;;;;;;5101026;28;20181;-43
2024/04/01 05:47:15;;;;;;;25.77;23.45;;;;;;;;;;5094968;28;20044;-43
2024/04/01 05:49:42;;;;;;;25.75;23.30;;;;;;;;;;5084374;28;20047;-48
2024/04/01 05:52:09;;;;;;;26.45;24.05;;;;;;;;;;5083987;28;20043;-50
2024/04/01 05:54:35;;;;;;;26.23;23.45;;;;;;;;;;5084163;28;20081;-47
2024/04/01 05:57:02;;;;;;;25.38;23.08;;;;;;;;;;5083887;28;20031;-51
2024/04/01 05:59:29;;;;;;;26.27;23.77;;;;;;;;;;5099154;28;20267;-47
2024/04/01 06:01:56;;;;;;;25.13;22.73;;;;;;;;;;5092656;28;20189;-48
2024/04/01 06:04:24;;;;;;;25.80;23.17;;;;;;;;;;5084004;28;20032;-41
2024/04/01 06:06:51;;;;;;;26.30;23.83;;;;;;;;;;5083865;28;20300;-51
2024/04/01 06:09:17;;;;;;;25.30;22.77;;;;;;;;;;5084011;28;20020;-53
2024/04/01 06:11:44;;;;;;;25.77;23.35;;;;;;;;;;5083710;28;20032;-44
2024/04/01 06:14:11;;;;;;;26.10;22.98;;;;;;;;;;5083832;28;20028;-44
2024/04/01 06:16:38;;;;;;;27.02;24.42;;;;;;;;;;5083729;28;20048;-45
2024/04/01 06:19:05;;;;;;;25.98;23.48;;;;;;;;;;5085254;28;20372;-46
2024/04/01 06:21:32;;;;;;;26.15;23.65;;;;;;;;;;5087581;28;20059;-46
2024/04/01 06:23:59;;;;;;;26.48;23.90;;;;;;;;;;5087855;28;20209;-45
2024/04/01 06:26:26;;;;;;;27.15;24.13;;;;;;;;;;5087487;28;20087;-50
2024/04/01 06:28:53;;;;;;;25.50;23.02;;;;;;;;;;5087696;28;20020;-45
2024/04/01 06:31:19;;;;;;;26.38;23.77;;;;;;;;;;5087600;28;20209;-48
2024/04/01 06:33:46;;;;;;;26.20;23.48;;;;;;;;;;5087475;28;20235;-43
2024/04/01 06:36:13;;;;;;;27.10;24.45;;;;;;;;;;5087508;28;20053;-43
2024/04/01 06:38:40;;;;;;;26.60;24.00;;;;;;;;;;5102588;28;20035;-44
2024/04/01 06:41:06;;;;;;;27.15;24.30;;;;;;;;;;5107518;28;20019;-44
2024/04/01 06:43:35;;;;;;;26.95;24.30;;;;;;;;;;5107555;28;20077;-47
2024/04/01 06:46:02;;;;;;;26.73;24.20;;;;;;;;;;5107564;28;20020;-44
2024/04/01 06:48:28;;;;;;;25.98;23.63;;;;;;;;;;5107281;28;20043;-44
2024/04/01 06:50:55;;;;;;;26.25;23.65;;;;;;;;;;5107461;28;20018;-48
2024/04/01 06:53:23;;;;;;;25.45;23.05;;;;;;;;;;5107439;28;20023;-49
2024/04/01 06:55:50;;;;;;;25.15;22.65;;;;;;;;;;5107269;28;20020;-52
2024/04/01 06:58:17;;;;;;;26.50;24.10;;;;;;;;;;5107358;28;20016;-51
2024/04/01 07:00:44;;;;;;;26.58;23.88;;;;;;;;;;5107220;28;20032;-44
2024/04/01 07:03:11;;;;;;;25.70;23.20;;;;;;;;;;5107235;28;20154;-45
2024/04/01 07:05:38;;;;;;;25.52;23.23;;;;;;;;;;5107196;28;20020;-46
2024/04/01 07:08:04;;;;;;;25.63;23.10;;;;;;;;;;5107101;28;20016;-50
2024/04/01 07:10:31;;;;;;;26.02;23.38;;;;;;;;;;5107473;28;20028;-46
2024/04/01 07:12:58;;;;;;;25.25;22.90;;;;;;;;;;5107476;28;20024;-46
2024/04/01 07:15:24;;;;;;;26.27;23.55;;;;;;;;;;5107559;28;20091;-54
2024/04/01 07:17:51;;;;;;;25.42;23.00;;;;;;;;;;5106792;28;20246;-57
2024/04/01 07:20:18;;;;;;;25.13;22.77;;;;;;;;;;5107380;28;20034;-52
2024/04/01 07:22:45;;;;;;;26.10;23.67;;;;;;;;;;5106919;28;20242;-45
2024/04/01 07:25:11;;;;;;;25.88;23.27;;;;;;;;;;5107200;28;20204;-51
2024/04/01 07:27:38;;;;;;;26.42;23.92;;;;;;;;;;5106846;28;20016;-47
2024/04/01 07:30:05;;;;;;;25.55;22.83;;;;;;;;;;5106642;28;20035;-49
2024/04/01 07:32:33;;;;;;;26.35;23.42;;;;;;;;;;5106610;28;20076;-48
2024/04/01 07:34:59;;;;;;;24.90;22.70;;;;;;;;;;5107150;28;20023;-43
2024/04/01 07:37:27;;;;;;;25.55;23.00;;;;;;;;;;5106714;28;20343;-50
2024/04/01 07:39:57;;;;;;;26.10;23.42;;;;;;;;;;5106774;28;20081;-43
2024/04/01 07:42:24;;;;;;;28.10;23.88;;;;;;;;;;5106391;28;20016;-43
2024/04/01 07:44:51;;;;;;;26.33;23.75;;;;;;;;;;5106803;28;20020;-49
2024/04/01 07:47:19;;;;;;;27.10;24.23;;;;;;;;;;5106360;28;20024;-54
2024/04/01 07:49:46;;;;;;;27.27;24.48;;;;;;;;;;5106263;28;20027;-47
2024/04/01 07:52:13;;;;;;;27.50;24.75;;;;;;;;;;5106418;28;20316;-45
2024/04/01 07:54:39;;;;;;;26.02;23.58;;;;;;;;;;5106450;28;20028;-43
2024/04/01 07:57:06;;;;;;;26.83;24.10;;;;;;;;;;5106532;28;20023;-49
2024/04/01 07:59:33;;;;;;;28.88;23.70;;;;;;;;;;5106494;28;20087;-43
2024/04/01 08:02:01;;;;;;;26.17;23.52;;;;;;;;;;5106215;28;20020;-49
2024/04/01 08:04:28;;;;;;;26.38;23.65;;;;;;;;;;5106377;28;20020;-46
2024/04/01 08:06:55;;;;;;;27.25;24.35;;;;;;;;;;5106151;28;20024;-44
2024/04/01 08:09:22;;;;;;;26.65;24.10;;;;;;;;;;5106102;28;20083;-46
2024/04/01 08:11:51;;;;;;;27.55;24.70;;;;;;;;;;5106095;28;20319;-43
2024/04/01 08:14:19;;;;;;;27.75;24.70;;;;;;;;;;5106178;28;20027;-43
2024/04/01 08:16:46;;;;;;;26.90;24.20;;;;;;;;;;5105791;28;20020;-46
2024/04/01 08:19:12;;;;;;;28.30;24.00;;;;;;;;;;5106072;28;20016;-49
2024/04/01 08:21:39;;;;;;;27.38;24.80;;;;;;;;;;5105629;28;20120;-45
2024/04/01 08:24:06;;;;;;;27.98;25.27;;;;;;;;;;5105716;28;20020;-53
2024/04/01 08:26:33;;;;;;;27.25;24.35;;;;;;;;;;5105631;28;20073;-52
2024/04/01 08:29:00;;;;;;;28.85;26.02;;;;;;;;;;5105473;28;20028;-52
2024/04/01 08:31:26;;;;;;;28.02;25.23;;;;;;;;;;5105506;28;20370;-50
2024/04/01 08:33:53;;;;;;;27.45;24.75;;;;;;;;;;5105588;28;20307;-55
2024/04/01 08:36:19;;;;;;;28.35;25.20;;;;;;;;;;5105513;28;20027;-54
2024/04/01 08:38:46;;;;;;;26.98;24.15;;;;;;;;;;5105704;28;20024;-54
2024/04/01 08:41:17;;;;;;;27.67;24.98;;;;;;;;;;5104847;28;20028;-51
2024/04/01 08:43:48;;;;;;;27.70;24.92;;;;;;;;;;5105413;28;20308;-52
2024/04/01 08:46:15;;;;;;;26.85;24.20;;;;;;;;;;5105196;28;20046;-57
2024/04/01 08:48:45;;;;;;;26.98;24.55;;;;;;;;;;5105404;28;20024;-55
2024/04/01 08:51:13;;;;;;;28.08;25.27;;;;;;;;;;5105255;28;20028;-52
2024/04/01 08:53:43;;;;;;;27.58;24.73;;;;;;;;;;5105144;28;20087;-54
2024/04/01 08:56:10;;;;;;;27.60;24.90;;;;;;;;;;5105182;28;20023;-57
2024/04/01 08:58:37;;;;;;;28.15;25.35;;;;;;;;;;5105094;28;20020;-45
2024/04/01 09:01:03;;;;;;;29.00;25.98;;;;;;;;;;5104792;28;20078;-53
2024/04/01 09:03:30;;;;;;;28.70;25.75;;;;;;;;;;5104915;28;20031;-52
2024/04/01 09:05:58;;;;;;;28.48;25.42;;;;;;;;;;5104999;28;20031;-51
2024/04/01 09:08:25;;;;;;;28.55;24.80;;;;;;;;;;5104674;28;20020;-58
2024/04/01 09:10:53;;;;;;;29.40;26.23;;;;;;;;;;5104797;28;20081;-60
2024/04/01 09:13:20;;;;;;;28.63;25.58;;;;;;;;;;5104694;28;20088;-56
2024/04/01 09:15:47;;;;;;;30.05;26.40;;;;;;;;;;5104637;28;20020;-61
2024/04/01 09:18:14;;;;;;;28.17;25.17;;;;;;;;;;5104673;28;20069;-52
2024/04/01 09:20:45;;;;;;;29.45;26.20;;;;;;;;;;5104716;28;20023;-48
2024/04/01 09:23:12;;;;;;;29.25;26.25;;;;;;;;;;5104290;28;20019;-44
2024/04/01 09:25:38;;;;;;;29.23;26.27;;;;;;;;;;5104514;28;20020;-49
2024/04/01 09:28:05;;;;;;;29.88;26.08;;;;;;;;;;5104640;28;20027;-47
2024/04/01 09:30:31;;;;;;;29.48;26.38;;;;;;;;;;5104368;28;20059;-53
2024/04/01 09:33:00;;;;;;;30.48;27.15;;;;;;;;;;5104378;28;20031;-45
2024/04/01 09:35:27;;;;;;;32.15;26.73;;;;;;;;;;5104787;28;20069;-54
2024/04/01 09:37:54;;;;;;;30.35;26.38;;;;;;;;;;5104271;28;20376;-53
2024/04/01 09:40:21;;;;;;;31.83;26.63;;;;;;;;;;5104924;28;20043;-55
2024/04/01 09:42:48;;;;;;;30.17;27.20;;;;;;;;;;5104286;28;20035;-48
2024/04/01 09:45:15;;;;;;;31.23;28.15;;;;;;;;;;5104566;28;20016;-56
2024/04/01 09:47:42;;;;;;;30.00;26.92;;;;;;;;;;5104381;28;20019;-54
2024/04/01 09:50:09;;;;;;;29.75;26.73;;;;;;;;;;5104714;28;20311;-52
2024/04/01 09:52:36;;;;;;;29.85;26.98;;;;;;;;;;5103703;28;20027;-50
2024/04/01 09:55:10;;;;;;;30.98;27.52;;;;;;;;;;5103999;28;20035;-43
2024/04/01 09:57:36;;;;;;;30.35;27.27;;;;;;;;;;5104110;28;20028;-43
2024/04/01 10:00:03;;;;;;;30.90;27.33;;;;;;;;;;5104339;28;20020;-42
2024/04/01 10:02:42;;;;;;;30.58;27.50;;;;;;;;;;5104237;28;20024;-50
2024/04/01 10:05:26;;;;;;;30.05;26.92;;;;;;;;;;5103860;28;20320;-48
2024/04/01 10:08:12;;;;;;;30.60;27.27;;;;;;;;;;5103915;28;20031;-46
2024/04/01 10:11:03;;;;;;;30.42;27.10;;;;;;;;;;5103841;28;20204;-51
2024/04/01 10:13:48;;;;;;;35.13;27.50;;;;;;;;;;5103979;28;20024;-47
2024/04/01 10:16:18;;;;;;;33.10;28.15;;;;;;;;;;5103966;28;20100;-44
2024/04/01 10:18:53;;;;;;;38.10;26.60;;;;;;;;;;5104199;28;20028;-43
2024/04/01 10:21:38;;;;;;;37.45;25.98;;;;;;;;;;5103863;28;20024;-46
2024/04/01 10:24:31;;;;;;;38.90;28.08;;;;;;;;;;5103896;28;20091;-48
2024/04/01 10:27:09;;;;;;;31.70;26.30;;;;;;;;;;5080713;28;20028;-46
2024/04/01 10:29:36;;;;;;;32.45;27.15;;;;;;;;;;5103610;28;20044;-44
2024/04/01 10:32:12;;;;;;;47.92;28.77;;;;;;;;;;5103862;28;20016;-49
2024/04/01 10:34:44;;;;;;;35.63;26.90;;;;;;;;;;5103840;28;20073;-44
2024/04/01 10:37:28;;;;;;;36.35;26.75;;;;;;;;;;5104001;28;20303;-44
2024/04/01 10:40:03;;;;;;;34.80;28.20;;;;;;;;;;5103982;28;20090;-49
2024/04/01 10:42:37;;;;;;;33.70;26.73;;;;;;;;;;5103695;28;20032;-52
2024/04/01 10:45:06;;;;;;;32.00;27.50;;;;;;;;;;5104063;28;20027;-54
2024/04/01 10:47:33;;;;;;;42.08;28.13;;;;;;;;;;5103940;28;20084;-44
2024/04/01 10:50:19;;;;;;;49.80;28.65;;;;;;;;;;5104113;28;20049;-47
2024/04/01 10:52:49;;;;;;;50.70;28.55;;;;;;;;;;5103528;28;20087;-45
2024/04/01 10:55:18;;;;;;;36.45;27.10;;;;;;;;;;5103895;28;20233;-44
2024/04/01 10:57:59;;;;;;;41.38;28.33;;;;;;;;;;5103671;28;20019;-50
2024/04/01 11:00:44;;;;;;;40.35;27.63;;;;;;;;;;5104047;28;20020;-46
2024/04/01 11:03:37;;;;;;;35.58;28.08;;;;;;;;;;5103189;28;20028;-46
2024/04/01 11:06:21;;;;;;;38.08;28.95;;;;;;;;;;5083092;28;20312;-46
2024/04/01 11:08:48;;;;;;;35.85;28.90;;;;;;;;;;5107387;28;20120;-46
2024/04/01 11:11:17;;;;;;;38.47;29.73;;;;;;;;;;5107326;28;20020;-49
2024/04/01 11:13:44;;;;;;;47.47;31.27;;;;;;;;;;5107259;28;20020;-48
2024/04/01 11:16:10;;;;;;;55.75;35.53;;;;;;;;;;5107230;28;20061;-48
2024/04/01 11:18:40;;;;;;;59.60;36.30;;;;;;;;;;5107079;28;20292;-45
2024/04/01 11:21:21;;;;;;;54.47;38.85;;;;;;;;;;5106838;28;20035;-44
2024/04/01 11:24:08;;;;;;;77.68;46.08;;;;;;;;;;5107005;28;20093;-49
2024/04/01 11:26:35;;;;;;;72.75;46.22;;;;;;;;;;5107121;28;20016;-47
2024/04/01 11:29:33;;;;;;;67.53;44.40;;;;;;;;;;5106891;28;20023;-49
2024/04/01 11:32:00;;;;;;;58.00;41.15;;;;;;;;;;5107019;28;20016;-46
2024/04/01 11:34:52;;;;;;;58.72;35.70;;;;;;;;;;5107076;28;20092;-45
2024/04/01 11:37:31;;;;;;;44.35;33.55;;;;;;;;;;5104043;28;20035;-54
2024/04/01 11:40:03;;;;;;;37.55;30.55;;;;;;;;;;5106871;28;20308;-49
2024/04/01 11:42:31;;;;;;;47.92;30.15;;;;;;;;;;5106651;28;20060;-47
2024/04/01 11:44:59;;;;;;;45.33;30.58;;;;;;;;;;5106845;28;20051;-53
2024/04/01 11:47:26;;;;;;;38.13;28.75;;;;;;;;;;5106331;28;20031;-46
2024/04/01 11:49:53;;;;;;;41.08;28.85;;;;;;;;;;5106556;28;20076;-47
2024/04/01 11:52:20;;;;;;;37.83;28.10;;;;;;;;;;5106497;28;20092;-46
2024/04/01 11:54:47;;;;;;;48.00;28.05;;;;;;;;;;5106647;28;20027;-53
2024/04/01 11:57:24;;;;;;;51.58;28.85;;;;;;;;;;5106497;28;20259;-50
2024/04/01 11:59:51;;;;;;;46.42;29.83;;;;;;;;;;5106456;28;20308;-46
2024/04/01 12:02:19;;;;;;;38.22;29.13;;;;;;;;;;5103520;28;20032;-47
2024/04/01 12:04:45;;;;;;;53.58;30.13;;;;;;;;;;5106583;28;20031;-50
2024/04/01 12:07:14;;;;;;;43.88;29.65;;;;;;;;;;5106045;28;20247;-46
2024/04/01 12:09:40;;;;;;;52.92;31.13;;;;;;;;;;5106499;28;20051;-50
2024/04/01 12:12:10;;;;;;;41.92;31.25;;;;;;;;;;5106209;28;20023;-44
2024/04/01 12:14:40;;;;;;;54.83;31.05;;;;;;;;;;5106285;28;20343;-49
2024/04/01 12:17:10;;;;;;;57.15;30.73;;;;;;;;;;5105377;28;20212;-49
2024/04/01 12:19:39;;;;;;;75.55;32.17;;;;;;;;;;5106412;28;20020;-54
2024/04/01 12:22:09;;;;;;;87.72;31.85;;;;;;;;;;5105598;28;20034;-50
2024/04/01 12:24:35;;;;;;;52.47;30.27;;;;;;;;;;5106196;28;20020;-49
2024/04/01 12:27:03;;;;;;;64.60;31.45;;;;;;;;;;5105968;28;20020;-55
2024/04/01 12:29:32;;;;;;;62.90;30.83;;;;;;;;;;5105640;28;20051;-45
2024/04/01 12:31:59;;;;;;;63.10;30.77;;;;;;;;;;5105701;28;20016;-50
2024/04/01 12:34:26;;;;;;;48.78;29.95;;;;;;;;;;5105919;28;20028;-50
2024/04/01 12:36:53;;;;;;;53.42;30.40;;;;;;;;;;5105486;28;20027;-45
2024/04/01 12:39:21;;;;;;;63.65;30.77;;;;;;;;;;5105857;28;20024;-45
2024/04/01 12:41:49;;;;;;;50.83;31.15;;;;;;;;;;5105807;28;20258;-46
2024/04/01 12:44:16;;;;;;;46.70;31.38;;;;;;;;;;5105792;28;20031;-43
2024/04/01 12:46:43;;;;;;;46.17;31.33;;;;;;;;;;5105620;28;20079;-55
2024/04/01 12:49:16;;;;;;;40.97;31.80;;;;;;;;;;5105997;28;20257;-48
2024/04/01 12:51:44;;;;;;;45.13;30.80;;;;;;;;;;5105436;28;20024;-45
2024/04/01 12:54:20;;;;;;;47.80;30.73;;;;;;;;;;5105895;28;20024;-45
2024/04/01 12:56:56;;;;;;;57.25;31.90;;;;;;;;;;5105336;28;20020;-58
2024/04/01 12:59:27;;;;;;;51.45;31.98;;;;;;;;;;5105467;28;20054;-51
2024/04/01 13:02:19;;;;;;;45.67;32.35;;;;;;;;;;5105175;28;20020;-48
2024/04/01 13:04:46;;;;;;;;;;;;;;;;;;5103205;28;20035;-44
2024/04/01 13:07:21;;;;;;;57.25;33.63;;;;;;;;;;5105150;28;19904;-48
2024/04/01 13:09:57;;;;;;;48.58;32.22;;;;;;;;;;5105757;28;20083;-47
2024/04/01 13:12:23;;;;;;;48.53;32.78;;;;;;;;;;5105135;28;20073;-45
2024/04/01 13:14:54;;;;;;;45.25;33.83;;;;;;;;;;5105259;28;20023;-51
2024/04/01 13:17:26;;;;;;;45.40;32.80;;;;;;;;;;5104909;28;20020;-49
2024/04/01 13:20:00;;;;;;;46.47;33.53;;;;;;;;;;5104659;28;20020;-47
2024/04/01 13:22:36;;;;;;;49.40;33.88;;;;;;;;;;5104766;28;20024;-46
2024/04/01 13:25:14;;;;;;;54.58;33.80;;;;;;;;;;5104530;28;20020;-46
2024/04/01 13:27:44;;;;;;;51.28;34.42;;;;;;;;;;5104565;28;20020;-45
2024/04/01 13:30:24;;;;;;;51.85;35.15;;;;;;;;;;5104747;28;20081;-48
2024/04/01 13:32:53;;;;;;;49.67;34.60;;;;;;;;;;5104563;28;20020;-46
2024/04/01 13:35:38;;;;;;;48.92;35.03;;;;;;;;;;5104893;28;20032;-46
2024/04/01 13:38:11;;;;;;;46.22;35.85;;;;;;;;;;5094100;28;20024;-48
2024/04/01 13:40:57;;;;;;;66.85;36.65;;;;;;;;;;5095821;28;20095;-48
2024/04/01 13:43:42;;;;;;;52.60;35.75;;;;;;;;;;5084129;28;20021;-48
2024/04/01 13:46:28;;;;;;;100.80;39.67;;;;;;;;;;5086472;28;20023;-49
2024/04/01 13:48:58;;;;;;;97.80;40.53;;;;;;;;;;5104503;28;20075;-50
2024/04/01 13:51:30;;;;;;;71.25;36.67;;;;;;;;;;5104192;28;20043;-53
2024/04/01 13:54:15;;;;;;;67.60;33.88;;;;;;;;;;5104490;28;20089;-48
2024/04/01 13:56:53;;;;;;;58.65;35.08;;;;;;;;;;5103986;28;20027;-44
2024/04/01 13:59:35;;;;;;;52.88;34.58;;;;;;;;;;5104387;28;20081;-49
2024/04/01 14:02:28;;;;;;;52.95;35.25;;;;;;;;;;5103848;28;20091;-54
2024/04/01 14:04:54;;;;;;;;;;;;;;;;;;5081156;28;20032;-51
2024/04/01 14:07:38;;;;;;;48.08;36.20;;;;;;;;;;5103968;28;19950;-51
2024/04/01 14:10:15;;;;;;;43.95;36.53;;;;;;;;;;5099252;28;20075;-45
2024/04/01 14:12:48;;;;;;;45.67;38.20;;;;;;;;;;5083835;28;20028;-47
2024/04/01 14:15:30;;;;;;;51.65;39.63;;;;;;;;;;5084146;28;20028;-50
2024/04/01 14:17:57;;;;;;;47.08;39.30;;;;;;;;;;5083522;28;20090;-49
2024/04/01 14:20:25;;;;;;;49.38;39.58;;;;;;;;;;5084011;28;20027;-46
2024/04/01 14:22:52;;;;;;;44.50;39.75;;;;;;;;;;5083698;28;20024;-50
2024/04/01 14:25:19;;;;;;;45.38;39.30;;;;;;;;;;5084177;28;20024;-49
2024/04/01 14:27:48;;;;;;;44.58;40.08;;;;;;;;;;5083734;28;20325;-49
2024/04/01 14:30:15;;;;;;;45.78;40.50;;;;;;;;;;5083507;28;20052;-45